Time;durP1;ratioP1;P1;durP2;ratioP2;P2;SDS_P1;SDS_P2;PMS_P1;PMS_P2;Temp;Humidity;BMP_temperature;BMP_pressure;BME280_temperature;BME280_humidity;BME280_pressure;Samples;Min_cycle;Max_cycle;Signal;HPM_P1;HPM_P2
2021/12/30 08:53:25;;;;;;;5.75;2.33;;;19.80;75.30;;;;;;5112289;27;20352;-42
2021/12/30 08:55:52;;;;;;;6.60;2.72;;;19.80;75.80;;;;;;5112333;28;20090;-42
2021/12/30 08:58:19;;;;;;;7.57;2.88;;;19.80;75.40;;;;;;5112067;28;20048;-42
2021/12/30 09:00:47;;;;;;;7.15;2.40;;;20.00;75.00;;;;;;5109958;28;20063;-44
2021/12/30 09:03:17;;;;;;;6.37;3.03;;;20.10;74.50;;;;;;5112491;28;20081;-42
2021/12/30 09:05:44;;;;;;;7.70;3.58;;;20.20;73.90;;;;;;5094975;28;20056;-44
2021/12/30 09:08:11;;;;;;;6.75;3.00;;;20.40;73.50;;;;;;5110445;28;20105;-42
2021/12/30 09:10:40;;;;;;;6.75;2.83;;;20.40;73.10;;;;;;5093764;28;20052;-43
2021/12/30 09:13:08;;;;;;;7.60;3.10;;;20.50;72.70;;;;;;5093632;28;20090;-42
2021/12/30 09:15:36;;;;;;;6.45;3.38;;;20.60;72.50;;;;;;5111954;28;20078;-42
2021/12/30 09:18:05;;;;;;;5.00;2.25;;;20.70;72.30;;;;;;5111643;28;20131;-41
2021/12/30 09:20:32;;;;;;;6.88;2.50;;;20.70;72.00;;;;;;4987291;28;20057;-40
2021/12/30 09:22:59;;;;;;;5.97;2.50;;;20.80;72.40;;;;;;5064959;28;20118;-43
2021/12/30 09:25:26;;;;;;;6.18;3.10;;;20.90;72.20;;;;;;5071106;28;20048;-42
2021/12/30 09:27:54;;;;;;;6.75;2.22;;;21.00;71.80;;;;;;5069334;28;20428;-43
2021/12/30 09:30:21;;;;;;;9.63;2.50;;;21.00;71.60;;;;;;5052311;28;20060;-43
2021/12/30 09:32:50;;;;;;;12.95;2.45;;;21.00;71.70;;;;;;5068795;28;20056;-43
2021/12/30 09:35:17;;;;;;;5.05;2.38;;;21.10;71.90;;;;;;5069756;28;20467;-41
2021/12/30 09:37:44;;;;;;;6.72;2.85;;;21.10;71.70;;;;;;5052357;28;20757;-43
2021/12/30 09:40:14;;;;;;;7.25;2.67;;;21.10;71.40;;;;;;5068844;28;20052;-41
2021/12/30 09:42:46;;;;;;;6.60;3.40;;;21.10;71.30;;;;;;5053293;28;20049;-43
2021/12/30 09:45:15;;;;;;;5.28;2.58;;;21.10;71.80;;;;;;5070305;28;20049;-42
2021/12/30 09:47:52;;;;;;;5.85;2.65;;;21.20;71.10;;;;;;5069358;28;20079;-42
2021/12/30 09:50:21;;;;;;;10.80;3.30;;;21.20;70.90;;;;;;5053044;28;20110;-42
2021/12/30 09:52:48;;;;;;;7.00;3.22;;;21.20;70.90;;;;;;5053396;28;20049;-41
2021/12/30 09:55:15;;;;;;;29.02;5.75;;;21.20;70.80;;;;;;5050589;28;20472;-41
2021/12/30 09:57:42;;;;;;;11.07;4.43;;;21.20;70.80;;;;;;5035486;28;20107;-41
2021/12/30 10:00:11;;;;;;;15.63;5.97;;;21.20;70.70;;;;;;5028659;28;20469;-41
2021/12/30 10:02:39;;;;;;;;;;;21.20;70.70;;;;;;5012484;28;20100;-42
2021/12/30 10:05:08;;;;;;;21.13;5.97;;;21.20;70.70;;;;;;5016459;28;19921;-43
2021/12/30 10:07:39;;;;;;;16.23;5.95;;;21.20;70.70;;;;;;5012861;28;20084;-41
2021/12/30 10:10:28;;;;;;;15.93;6.00;;;21.20;71.50;;;;;;5035993;28;20053;-41
2021/12/30 10:12:55;;;;;;;16.45;6.75;;;21.20;70.80;;;;;;5035246;28;20080;-41
2021/12/30 10:15:25;;;;;;;22.42;6.45;;;21.10;70.80;;;;;;5020091;28;20042;-41
2021/12/30 10:17:56;;;;;;;18.60;5.25;;;21.10;70.70;;;;;;5012245;28;20457;-42
2021/12/30 10:20:25;;;;;;;19.90;8.13;;;21.10;70.80;;;;;;5014963;28;20480;-42
2021/12/30 10:22:52;;;;;;;18.48;6.93;;;21.10;70.70;;;;;;5016878;28;20053;-41
2021/12/30 10:25:29;;;;;;;15.45;5.95;;;21.10;70.70;;;;;;5000025;28;20140;-42
2021/12/30 10:28:15;;;;;;;21.92;8.13;;;21.10;70.80;;;;;;5014972;28;20500;-41
2021/12/30 10:30:42;;;;;;;14.88;6.93;;;21.10;70.80;;;;;;5016623;28;20085;-43
2021/12/30 10:33:17;;;;;;;14.93;6.13;;;21.00;70.70;;;;;;4998750;28;20477;-43
2021/12/30 10:35:44;;;;;;;14.95;5.55;;;21.00;70.80;;;;;;5016035;28;20523;-41
2021/12/30 10:38:11;;;;;;;17.27;5.43;;;21.00;70.80;;;;;;5016558;28;20073;-41
2021/12/30 10:40:44;;;;;;;16.25;6.13;;;21.00;71.40;;;;;;4997889;28;20104;-41
2021/12/30 10:43:26;;;;;;;14.77;5.22;;;21.00;70.80;;;;;;5016374;28;20145;-41
2021/12/30 10:46:13;;;;;;;11.02;4.90;;;21.00;70.70;;;;;;5016499;28;20065;-41
2021/12/30 10:48:45;;;;;;;14.52;6.13;;;21.00;70.80;;;;;;5008884;28;20060;-42
2021/12/30 10:51:17;;;;;;;12.90;5.68;;;21.00;70.80;;;;;;5015222;28;20093;-41
2021/12/30 10:53:44;;;;;;;11.73;5.65;;;21.00;70.70;;;;;;5015721;28;20423;-41
2021/12/30 10:56:33;;;;;;;14.18;5.32;;;21.00;70.60;;;;;;5015760;28;20477;-41
2021/12/30 10:59:21;;;;;;;12.23;6.03;;;21.00;70.60;;;;;;5015520;28;20073;-41
2021/12/30 11:01:53;;;;;;;14.23;6.22;;;21.10;70.60;;;;;;4997715;28;20472;-41
2021/12/30 11:04:21;;;;;;;11.90;5.97;;;21.10;70.60;;;;;;4999124;28;20076;-41
2021/12/30 11:06:48;;;;;;;10.48;4.50;;;21.10;70.60;;;;;;5005138;28;20046;-41
2021/12/30 11:09:19;;;;;;;11.00;4.93;;;21.10;70.50;;;;;;5035194;28;20122;-42
2021/12/30 11:11:52;;;;;;;10.55;5.15;;;21.10;70.50;;;;;;5001621;28;20537;-41
2021/12/30 11:14:21;;;;;;;11.55;4.57;;;21.10;70.50;;;;;;5034254;28;20448;-41
2021/12/30 11:16:53;;;;;;;11.60;4.90;;;21.10;70.40;;;;;;5035176;28;20115;-42
2021/12/30 11:19:21;;;;;;;11.05;5.60;;;21.10;70.40;;;;;;5035104;28;20419;-42
2021/12/30 11:21:51;;;;;;;8.70;3.92;;;21.20;70.30;;;;;;5034621;28;20048;-41
2021/12/30 11:24:18;;;;;;;9.60;4.40;;;21.20;70.30;;;;;;5018116;28;20077;-41
2021/12/30 11:26:45;;;;;;;11.77;5.63;;;21.20;70.90;;;;;;5033748;28;20705;-42
2021/12/30 11:29:12;;;;;;;7.57;3.80;;;21.30;70.20;;;;;;5017981;28;20085;-41
2021/12/30 11:31:39;;;;;;;9.70;4.68;;;21.30;70.20;;;;;;5035140;28;20451;-41
2021/12/30 11:34:05;;;;;;;12.07;4.03;;;21.30;70.20;;;;;;5033578;28;20108;-43
2021/12/30 11:36:33;;;;;;;8.23;3.58;;;21.30;70.20;;;;;;5034555;28;20049;-42
2021/12/30 11:39:15;;;;;;;7.68;3.33;;;21.30;70.20;;;;;;5017750;28;20518;-41
2021/12/30 11:41:43;;;;;;;7.38;3.70;;;21.30;70.10;;;;;;5016795;28;20045;-41
2021/12/30 11:44:50;;;;;;;10.37;4.20;;;21.30;70.10;;;;;;5018178;28;20081;-41
2021/12/30 11:47:32;;;;;;;7.75;3.65;;;21.30;70.10;;;;;;4999041;28;20060;-41
2021/12/30 11:50:03;;;;;;;5.78;2.97;;;21.20;70.10;;;;;;5013990;28;20115;-42
2021/12/30 11:52:49;;;;;;;7.60;3.63;;;21.20;70.20;;;;;;5014964;28;20088;-42
2021/12/30 11:55:53;;;;;;;6.28;3.13;;;21.20;70.00;;;;;;5014817;28;20128;-41
2021/12/30 11:58:45;;;;;;;9.05;3.88;;;21.20;70.10;;;;;;5014586;28;20096;-41
2021/12/30 12:01:24;;;;;;;6.70;3.30;;;21.20;70.20;;;;;;4997222;28;20381;-41
2021/12/30 12:03:53;;;;;;;6.30;3.13;;;21.20;70.20;;;;;;5014260;28;20393;-42
2021/12/30 12:06:38;;;;;;;6.72;3.42;;;21.20;70.20;;;;;;5026285;28;20110;-41
2021/12/30 12:09:13;;;;;;;9.43;3.88;;;21.10;70.20;;;;;;5054425;28;20071;-41
2021/12/30 12:11:48;;;;;;;6.55;2.53;;;21.10;70.20;;;;;;5053392;28;20103;-41
2021/12/30 12:14:19;;;;;;;6.45;3.13;;;21.10;70.20;;;;;;5036103;28;20048;-41
2021/12/30 12:16:50;;;;;;;7.28;2.85;;;21.10;70.20;;;;;;5054664;28;20084;-41
2021/12/30 12:19:18;;;;;;;7.15;2.95;;;21.10;70.10;;;;;;5053875;28;20057;-41
2021/12/30 12:21:54;;;;;;;7.67;3.20;;;21.10;70.20;;;;;;5053399;28;20130;-41
2021/12/30 12:24:21;;;;;;;7.55;3.53;;;21.00;70.10;;;;;;5054078;28;20332;-43
2021/12/30 12:26:56;;;;;;;8.15;3.15;;;21.00;70.00;;;;;;5052697;28;20049;-42
2021/12/30 12:29:30;;;;;;;6.03;2.33;;;21.00;70.10;;;;;;5054783;28;20080;-42
2021/12/30 12:32:09;;;;;;;6.30;3.47;;;21.10;70.10;;;;;;5054034;28;20048;-41
2021/12/30 12:34:45;;;;;;;15.15;4.53;;;21.10;70.20;;;;;;5035860;28;20135;-41
2021/12/30 12:37:36;;;;;;;8.13;3.67;;;21.10;70.00;;;;;;5053909;28;20059;-41
2021/12/30 12:40:11;;;;;;;8.60;3.38;;;21.10;70.20;;;;;;5052931;28;20041;-41
2021/12/30 12:42:50;;;;;;;5.95;2.65;;;21.10;70.10;;;;;;5037491;28;20130;-41
2021/12/30 12:45:31;;;;;;;8.38;3.38;;;21.20;70.30;;;;;;5054373;28;20060;-41
2021/12/30 12:48:17;;;;;;;6.38;2.70;;;21.10;70.10;;;;;;5036578;28;20057;-42
2021/12/30 12:51:00;;;;;;;5.20;2.78;;;21.10;70.10;;;;;;5053866;28;20048;-42
2021/12/30 12:53:32;;;;;;;6.45;3.10;;;21.10;70.00;;;;;;5053418;28;20127;-42
2021/12/30 12:56:00;;;;;;;5.90;2.67;;;21.10;69.90;;;;;;5052719;28;20045;-41
2021/12/30 12:58:28;;;;;;;5.28;2.45;;;21.20;69.90;;;;;;5053259;28;20053;-42
2021/12/30 13:00:56;;;;;;;6.82;2.95;;;21.20;69.90;;;;;;5052592;28;20483;-43
2021/12/30 13:03:23;;;;;;;8.38;3.88;;;21.20;69.90;;;;;;5053915;28;20048;-43
2021/12/30 13:06:08;;;;;;;10.15;4.50;;;21.20;69.80;;;;;;5054081;28;20446;-41
2021/12/30 13:08:37;;;;;;;7.22;3.17;;;21.20;69.90;;;;;;5053848;28;20088;-41
2021/12/30 13:11:10;;;;;;;4.88;2.67;;;21.20;69.80;;;;;;5052671;28;20114;-41
2021/12/30 13:13:41;;;;;;;7.53;2.85;;;21.20;69.90;;;;;;5052725;28;20048;-41
2021/12/30 13:16:23;;;;;;;7.97;3.40;;;21.20;69.90;;;;;;5054433;28;20470;-44
2021/12/30 13:19:18;;;;;;;6.90;3.05;;;21.20;70.00;;;;;;5035978;28;20101;-42
2021/12/30 13:21:49;;;;;;;8.85;3.22;;;21.20;70.00;;;;;;5052891;28;20131;-41
2021/12/30 13:24:36;;;;;;;9.18;3.72;;;21.20;70.00;;;;;;5054083;28;20110;-42
2021/12/30 13:27:18;;;;;;;9.07;3.05;;;21.20;70.10;;;;;;5052205;28;20114;-43
2021/12/30 13:30:15;;;;;;;9.20;3.58;;;21.20;70.00;;;;;;5047296;28;20120;-42
2021/12/30 13:32:44;;;;;;;6.78;3.15;;;21.20;70.10;;;;;;5033559;28;20045;-42
2021/12/30 13:35:27;;;;;;;5.18;3.00;;;21.20;70.20;;;;;;5033910;28;20100;-41
2021/12/30 13:37:58;;;;;;;6.93;3.20;;;21.20;70.20;;;;;;5033627;28;20053;-42
2021/12/30 13:40:33;;;;;;;7.72;3.10;;;21.20;70.20;;;;;;5035431;28;20049;-43
2021/12/30 13:43:08;;;;;;;7.10;3.53;;;21.20;70.20;;;;;;5037036;28;20111;-43
2021/12/30 13:45:52;;;;;;;9.00;3.40;;;21.10;70.80;;;;;;5033214;28;20053;-41
2021/12/30 13:48:21;;;;;;;7.32;3.30;;;21.10;70.10;;;;;;5016208;28;20127;-42
2021/12/30 13:50:51;;;;;;;;;;;21.10;70.10;;;;;;5008629;28;20077;-42
2021/12/30 13:53:18;;;;;;;7.05;3.13;;;21.10;70.10;;;;;;5015926;28;19921;-41
2021/12/30 13:55:52;;;;;;;9.40;4.10;;;21.10;70.20;;;;;;5016929;28;20065;-41
2021/12/30 13:58:34;;;;;;;6.97;3.40;;;21.00;70.20;;;;;;5000971;28;20116;-41
2021/12/30 14:01:21;;;;;;;7.43;4.32;;;21.00;70.10;;;;;;5015971;28;20042;-40
2021/12/30 14:04:06;;;;;;;7.10;3.30;;;21.10;70.20;;;;;;5016879;28;20049;-43
2021/12/30 14:06:33;;;;;;;6.10;3.08;;;21.10;70.20;;;;;;5025138;28;20471;-42
2021/12/30 14:09:01;;;;;;;5.72;2.53;;;21.10;70.10;;;;;;5035988;28;20080;-42
2021/12/30 14:11:40;;;;;;;8.80;3.45;;;21.10;70.10;;;;;;5032690;28;20049;-41
2021/12/30 14:14:09;;;;;;;9.20;3.45;;;21.10;70.30;;;;;;5015340;28;20423;-41
2021/12/30 14:16:38;;;;;;;6.95;3.00;;;21.10;70.20;;;;;;5036366;28;20049;-44
2021/12/30 14:19:05;;;;;;;7.82;2.90;;;21.10;70.20;;;;;;5002692;28;20443;-44
2021/12/30 14:21:34;;;;;;;8.25;3.05;;;21.10;70.20;;;;;;5035184;28;20096;-42
2021/12/30 14:24:28;;;;;;;7.60;3.45;;;21.10;70.20;;;;;;5037055;28;20050;-42
2021/12/30 14:27:17;;;;;;;7.88;3.38;;;21.10;70.40;;;;;;5031848;28;20101;-48
2021/12/30 14:29:44;;;;;;;7.18;2.78;;;21.00;70.50;;;;;;5020086;28;20065;-43
2021/12/30 14:32:12;;;;;;;5.88;3.45;;;21.00;70.60;;;;;;5035793;28;20536;-44
2021/12/30 14:34:40;;;;;;;5.80;3.13;;;21.00;70.50;;;;;;5017930;28;20107;-43
2021/12/30 14:37:12;;;;;;;5.82;3.25;;;20.90;70.50;;;;;;5019394;28;20081;-43
2021/12/30 14:39:40;;;;;;;7.45;2.90;;;20.90;70.50;;;;;;5034143;28;20321;-42
2021/12/30 14:42:19;;;;;;;7.53;3.10;;;21.00;70.60;;;;;;5036336;28;20114;-43
2021/12/30 14:44:47;;;;;;;6.45;3.03;;;20.90;70.70;;;;;;5036609;28;20053;-43
2021/12/30 14:47:27;;;;;;;6.32;2.78;;;21.00;70.60;;;;;;5001613;28;20049;-42
2021/12/30 14:50:02;;;;;;;7.85;3.25;;;21.00;70.60;;;;;;5036095;28;20077;-42
2021/12/30 14:52:46;;;;;;;6.97;3.55;;;21.00;70.50;;;;;;5048627;28;20140;-43
2021/12/30 14:55:17;;;;;;;8.05;3.63;;;21.00;70.50;;;;;;5055851;28;20045;-42
2021/12/30 14:57:43;;;;;;;7.32;2.92;;;21.00;70.40;;;;;;5038988;28;20203;-42
2021/12/30 15:00:22;;;;;;;8.27;3.00;;;21.00;70.40;;;;;;5054493;28;20467;-42
2021/12/30 15:02:49;;;;;;;10.10;3.33;;;21.00;70.30;;;;;;5055394;28;20084;-45
2021/12/30 15:05:17;;;;;;;6.85;3.20;;;21.00;70.40;;;;;;5055818;28;20056;-42
2021/12/30 15:07:44;;;;;;;8.43;3.20;;;21.10;70.20;;;;;;5024057;28;20049;-44
2021/12/30 15:10:12;;;;;;;6.07;3.05;;;21.10;70.10;;;;;;5015070;28;20093;-44
2021/12/30 15:12:40;;;;;;;6.38;2.55;;;21.10;70.20;;;;;;5015914;28;20480;-42
2021/12/30 15:15:08;;;;;;;6.85;2.70;;;21.10;70.10;;;;;;4997875;28;20107;-44
2021/12/30 15:17:35;;;;;;;6.73;2.97;;;21.10;70.20;;;;;;5015759;28;20054;-42
2021/12/30 15:20:03;;;;;;;7.43;2.97;;;21.10;70.10;;;;;;4997474;28;20057;-45
2021/12/30 15:22:30;;;;;;;6.43;2.67;;;21.10;70.10;;;;;;4998879;28;20050;-42
2021/12/30 15:24:57;;;;;;;4.47;2.25;;;21.10;70.00;;;;;;5015403;28;20108;-43
2021/12/30 15:27:24;;;;;;;5.47;2.40;;;21.10;70.00;;;;;;5014171;28;20530;-42
2021/12/30 15:29:50;;;;;;;5.70;3.47;;;21.10;69.90;;;;;;5015504;28;20054;-42
2021/12/30 15:32:37;;;;;;;4.97;2.90;;;21.20;70.00;;;;;;5015484;28;20084;-45
2021/12/30 15:35:04;;;;;;;9.88;2.85;;;21.20;69.90;;;;;;5014971;28;20100;-42
2021/12/30 15:37:31;;;;;;;5.07;2.90;;;21.20;69.90;;;;;;5015601;28;20065;-42
2021/12/30 15:39:58;;;;;;;6.40;3.13;;;21.20;69.90;;;;;;4996713;28;20077;-42
2021/12/30 15:42:38;;;;;;;5.53;2.42;;;21.20;69.90;;;;;;5000175;28;20111;-43
2021/12/30 15:45:06;;;;;;;5.40;2.27;;;21.20;69.80;;;;;;5015830;28;20120;-42
2021/12/30 15:47:33;;;;;;;3.90;2.30;;;21.20;69.70;;;;;;5014320;28;20054;-44
2021/12/30 15:50:00;;;;;;;4.97;2.05;;;21.20;69.90;;;;;;5014478;28;20068;-42
2021/12/30 15:52:27;;;;;;;6.13;2.42;;;21.30;70.00;;;;;;4953131;28;20057;-41
2021/12/30 15:54:54;;;;;;;6.25;2.83;;;21.30;70.20;;;;;;4818553;28;110287;-46
2021/12/30 18:52:18;;;;;;;2.33;1.63;;;23.10;70.20;;;;;;4862708;27;90914;-54
2021/12/30 18:54:48;;;;;;;4.53;1.88;;;21.80;71.40;;;;;;4948441;28;20048;-61
2021/12/30 18:57:14;;;;;;;6.18;2.20;;;21.90;72.40;;;;;;5014638;28;20471;-61
2021/12/30 18:59:39;;;;;;;3.20;1.35;;;21.60;72.10;;;;;;4933309;28;20082;-61
2021/12/30 19:02:05;;;;;;;3.05;1.33;;;21.40;72.80;;;;;;4956397;28;80593;-64
2021/12/30 19:04:30;;;;;;;3.55;1.75;;;21.20;73.20;;;;;;5050429;28;20029;-65
2021/12/30 19:06:58;;;;;;;3.90;1.60;;;21.00;73.80;;;;;;5037044;28;20024;-61
2021/12/30 19:09:24;;;;;;;3.75;1.45;;;20.90;74.20;;;;;;4990480;28;20045;-62
2021/12/30 19:11:53;;;;;;;4.43;1.60;;;20.90;74.70;;;;;;5033893;28;20108;-46
2021/12/30 19:14:19;;;;;;;4.45;1.40;;;20.90;78.80;;;;;;4984257;28;20060;-55
2021/12/30 19:16:45;;;;;;;1.83;1.17;;;21.90;72.80;;;;;;5021916;28;20021;-59
2021/12/30 19:19:12;;;;;;;5.10;1.90;;;22.10;71.20;;;;;;5013433;28;20069;-63
2021/12/30 19:21:38;;;;;;;1.80;1.05;;;22.00;70.90;;;;;;5044366;28;20090;-63
2021/12/30 19:24:04;;;;;;;4.80;1.30;;;21.90;70.80;;;;;;5052726;28;20040;-63
2021/12/30 19:26:30;;;;;;;2.42;1.00;;;21.80;71.40;;;;;;5051810;28;20028;-63
2021/12/30 19:28:56;;;;;;;3.50;1.10;;;21.80;71.40;;;;;;5052892;28;20096;-64
2021/12/30 19:31:21;;;;;;;2.05;1.35;;;21.80;70.70;;;;;;5053511;28;20090;-64
2021/12/30 19:33:47;;;;;;;2.17;1.25;;;21.80;71.40;;;;;;5052647;28;20017;-64
2021/12/30 19:36:13;;;;;;;2.65;1.40;;;21.80;70.60;;;;;;5036107;28;20352;-64
2021/12/30 19:38:38;;;;;;;2.35;1.30;;;21.80;70.50;;;;;;5053586;28;20043;-64
2021/12/30 19:41:06;;;;;;;3.03;1.02;;;21.70;70.40;;;;;;5069788;28;20100;-64
2021/12/30 19:43:33;;;;;;;3.08;1.10;;;21.70;70.40;;;;;;5052780;28;20024;-65
2021/12/30 19:45:58;;;;;;;2.40;1.15;;;21.70;70.10;;;;;;5053242;28;20039;-63
2021/12/30 19:48:26;;;;;;;3.63;1.38;;;21.70;70.30;;;;;;5069631;28;20017;-65
2021/12/30 19:50:52;;;;;;;2.85;1.17;;;21.80;70.10;;;;;;5057166;28;20434;-65
2021/12/30 19:53:18;;;;;;;2.05;1.17;;;21.80;69.90;;;;;;5068212;28;20049;-61
2021/12/30 19:55:43;;;;;;;4.13;1.30;;;21.80;69.70;;;;;;5047124;28;20029;-63
2021/12/30 19:58:09;;;;;;;3.83;1.20;;;21.90;69.90;;;;;;5046880;28;20096;-65
2021/12/30 20:00:37;;;;;;;1.98;1.20;;;21.90;69.80;;;;;;5046538;28;20482;-61
2021/12/30 20:03:54;;;;;;;5.07;1.35;;;21.90;70.00;;;;;;5110048;27;20717;-70
2021/12/30 20:06:21;;;;;;;2.75;1.08;;;21.90;70.00;;;;;;5073402;28;20071;-64
2021/12/30 20:08:48;;;;;;;5.25;1.60;;;21.90;70.20;;;;;;5089324;28;20086;-65
2021/12/30 20:11:16;;;;;;;4.35;1.45;;;22.00;70.20;;;;;;5091985;28;20043;-63
2021/12/30 20:13:43;;;;;;;3.75;1.25;;;22.00;70.10;;;;;;5108066;28;20056;-61
2021/12/30 20:16:10;;;;;;;2.22;1.02;;;21.90;70.20;;;;;;5109178;28;20082;-60
2021/12/30 20:18:38;;;;;;;3.50;1.35;;;21.90;70.20;;;;;;5109316;28;20040;-63
2021/12/30 20:21:04;;;;;;;3.40;1.20;;;21.90;70.10;;;;;;5090009;28;20093;-61
2021/12/30 20:23:31;;;;;;;2.40;1.13;;;21.90;70.00;;;;;;5108954;28;20770;-64
2021/12/30 20:25:58;;;;;;;4.13;1.40;;;21.90;70.10;;;;;;5108669;28;20047;-65
2021/12/30 20:28:25;;;;;;;3.25;1.27;;;22.00;70.10;;;;;;5107564;28;20545;-67
2021/12/30 20:30:52;;;;;;;2.33;1.27;;;22.00;70.20;;;;;;5090915;28;20104;-66
2021/12/30 20:33:20;;;;;;;2.50;1.25;;;22.00;70.20;;;;;;5107736;28;20105;-65
2021/12/30 20:35:49;;;;;;;2.92;1.20;;;22.00;70.10;;;;;;5072619;28;20052;-66
2021/12/30 20:38:16;;;;;;;2.35;0.90;;;22.00;70.00;;;;;;5108836;28;20123;-64
2021/12/30 20:40:44;;;;;;;1.85;1.02;;;22.00;70.00;;;;;;5107940;28;20355;-61
2021/12/30 20:43:13;;;;;;;4.28;1.50;;;22.00;70.00;;;;;;5108351;28;20091;-62
2021/12/30 20:45:41;;;;;;;4.63;1.13;;;22.00;70.00;;;;;;5074269;28;20051;-62
2021/12/30 20:48:08;;;;;;;1.40;0.90;;;22.10;70.00;;;;;;5089957;28;20454;-61
2021/12/30 20:50:36;;;;;;;4.15;1.42;;;22.10;69.80;;;;;;5090151;28;20504;-63
2021/12/30 20:53:04;;;;;;;4.85;1.60;;;22.10;69.80;;;;;;5089782;28;20075;-59
2021/12/30 20:55:34;;;;;;;3.17;1.25;;;22.10;69.80;;;;;;5108091;28;20105;-62
2021/12/30 20:58:03;;;;;;;2.88;1.42;;;22.10;69.70;;;;;;5108200;28;20047;-60
2021/12/30 21:00:30;;;;;;;3.35;1.80;;;22.10;69.70;;;;;;5089337;28;20052;-62
2021/12/30 21:02:57;;;;;;;2.17;1.10;;;22.10;69.70;;;;;;5095432;28;20059;-65
2021/12/30 21:05:27;;;;;;;2.63;1.30;;;22.10;69.70;;;;;;5068110;28;20477;-68
2021/12/30 21:07:53;;;;;;;;;;;22.20;69.80;;;;;;5067596;28;20040;-65
2021/12/30 21:11:15;;;;;;;3.33;1.40;;;22.20;69.30;;;;;;4939410;27;77195;-61
2021/12/30 21:13:42;;;;;;;4.65;2.05;;;22.30;69.50;;;;;;5033329;28;20127;-62
2021/12/30 21:16:09;;;;;;;1.48;1.00;;;22.40;69.30;;;;;;4989985;28;20096;-57
2021/12/30 21:18:36;;;;;;;2.20;1.67;;;22.40;69.00;;;;;;5046916;28;20128;-59
2021/12/30 21:21:03;;;;;;;2.35;1.10;;;22.50;69.20;;;;;;5030839;28;20093;-59
2021/12/30 21:23:31;;;;;;;3.55;1.30;;;22.40;69.30;;;;;;5048727;28;20069;-61
2021/12/30 21:26:02;;;;;;;2.53;1.03;;;22.40;69.30;;;;;;5028271;28;20073;-62
2021/12/30 21:28:29;;;;;;;1.70;1.00;;;22.40;69.50;;;;;;5048109;28;20081;-61
2021/12/30 21:30:56;;;;;;;2.53;1.13;;;22.40;69.50;;;;;;5033718;28;20045;-59
2021/12/30 21:33:23;;;;;;;4.22;1.10;;;22.40;69.60;;;;;;5030076;28;20444;-57
2021/12/30 21:35:52;;;;;;;1.75;1.05;;;22.40;69.40;;;;;;5048195;28;20072;-60
2021/12/30 21:38:19;;;;;;;3.08;1.45;;;22.40;69.30;;;;;;5030933;28;20077;-59
2021/12/30 21:40:51;;;;;;;4.53;1.40;;;22.40;69.40;;;;;;5046860;28;20075;-60
2021/12/30 21:43:18;;;;;;;3.85;1.40;;;22.40;69.30;;;;;;5045375;28;20060;-57
2021/12/30 21:45:45;;;;;;;2.90;1.13;;;22.40;69.20;;;;;;5049911;28;20134;-56
2021/12/30 21:48:12;;;;;;;3.35;1.33;;;22.40;69.20;;;;;;5047552;28;20147;-58
2021/12/30 21:50:39;;;;;;;4.43;1.45;;;22.30;69.20;;;;;;5045709;28;20081;-61
2021/12/30 21:53:05;;;;;;;2.65;1.73;;;22.30;69.10;;;;;;5047628;28;20084;-57
2021/12/30 21:55:33;;;;;;;2.35;1.15;;;22.30;69.20;;;;;;5029964;28;20451;-57
2021/12/30 21:58:01;;;;;;;2.15;1.20;;;22.30;69.80;;;;;;5048121;28;20045;-57
2021/12/30 22:00:28;;;;;;;3.65;1.85;;;22.30;69.10;;;;;;5047252;28;20144;-57
2021/12/30 22:02:55;;;;;;;2.20;1.02;;;22.30;69.10;;;;;;5047513;28;20531;-57
2021/12/30 22:05:26;;;;;;;2.58;1.27;;;22.30;69.00;;;;;;5046468;28;20045;-53
2021/12/30 22:07:53;;;;;;;4.15;1.63;;;22.30;69.00;;;;;;5047738;28;20053;-55
2021/12/30 22:10:20;;;;;;;3.53;1.55;;;22.30;68.90;;;;;;5046203;28;20085;-55
2021/12/30 22:12:46;;;;;;;4.43;1.35;;;22.40;68.90;;;;;;5045555;28;20072;-56
2021/12/30 22:15:13;;;;;;;2.65;1.30;;;22.40;68.90;;;;;;5046773;28;20091;-56
2021/12/30 22:17:40;;;;;;;2.53;1.35;;;22.40;68.80;;;;;;5029358;28;20455;-56
2021/12/30 22:20:08;;;;;;;2.83;1.63;;;22.40;68.70;;;;;;5046281;28;20115;-54
2021/12/30 22:22:34;;;;;;;3.03;1.27;;;22.40;68.60;;;;;;5033899;28;20119;-56
2021/12/30 22:25:01;;;;;;;3.20;1.70;;;22.40;68.70;;;;;;5033396;28;20124;-58
2021/12/30 22:27:28;;;;;;;1.77;1.20;;;22.40;69.40;;;;;;5033239;28;20080;-55
2021/12/30 22:29:56;;;;;;;3.00;1.20;;;22.40;68.70;;;;;;5033415;28;20136;-54
2021/12/30 22:32:24;;;;;;;2.55;1.38;;;22.40;68.70;;;;;;5033524;28;20041;-57
2021/12/30 22:34:51;;;;;;;3.45;1.90;;;22.40;68.60;;;;;;5031694;28;20049;-58
2021/12/30 22:37:18;;;;;;;3.97;2.33;;;22.40;68.70;;;;;;5032356;28;20127;-55
2021/12/30 22:39:45;;;;;;;3.20;1.55;;;22.30;68.70;;;;;;5033902;28;20095;-55
2021/12/30 22:42:12;;;;;;;3.28;1.10;;;22.30;68.70;;;;;;5016138;28;20057;-55
2021/12/30 22:44:39;;;;;;;2.50;1.15;;;22.30;68.60;;;;;;5032054;28;20096;-57
2021/12/30 22:47:06;;;;;;;2.35;1.08;;;22.30;68.60;;;;;;4999753;28;20138;-54
